Savannah/Hunter AAF, Georgia
Current Conditions -  °F | °C
As of 4:58 AM on Sunday 25 Jan 2015 (Local Time) from KSVN Reporting Station
Clear Clear  
Wind Chill: 37°   Ceiling: Unl
Heat Index: 37°   Visibility: 10mi
Dew Point: 31°   Wind: 3mph
Humidity: 80%   Direction: 260°W
Pressure: 29.98"   Gusts: NA
Location:  32.02°N, 81.15°W
Report Text: KSVN 250958Z AUTO 26003KT 10SM CLR 03/00 A2998 RMK AO2 SLP155 T00281004
Loading
Personal Weather Stations






























Interactive Weather Map New forecast layout! Learn more

10-Day Weather Forecast

Advertisements
Track Severe Weather on mobile